sensor_id;sensor_type;location;lat;lon;timestamp;temperature;humidity
45096;DHT22;30858;51.108;8.068;2022-07-25T00:00:19;18.00;99.90
45096;DHT22;30858;51.108;8.068;2022-07-25T00:02:45;17.90;99.90
45096;DHT22;30858;51.108;8.068;2022-07-25T00:05:10;17.80;99.90
45096;DHT22;30858;51.108;8.068;2022-07-25T00:07:36;17.70;99.90
45096;DHT22;30858;51.108;8.068;2022-07-25T00:10:02;17.60;99.90
45096;DHT22;30858;51.108;8.068;2022-07-25T00:12:28;17.60;99.90
45096;DHT22;30858;51.108;8.068;2022-07-25T00:14:53;17.50;99.90
45096;DHT22;30858;51.108;8.068;2022-07-25T00:17:19;17.60;99.90
45096;DHT22;30858;51.108;8.068;2022-07-25T00:19:44;17.50;99.90
45096;DHT22;30858;51.108;8.068;2022-07-25T00:22:10;17.40;99.90
45096;DHT22;30858;51.108;8.068;2022-07-25T00:24:36;17.40;99.90
45096;DHT22;30858;51.108;8.068;2022-07-25T00:27:01;17.40;99.90
45096;DHT22;30858;51.108;8.068;2022-07-25T00:29:27;17.50;99.90
45096;DHT22;30858;51.108;8.068;2022-07-25T00:31:53;17.50;99.90
45096;DHT22;30858;51.108;8.068;2022-07-25T00:34:18;17.50;99.90
45096;DHT22;30858;51.108;8.068;2022-07-25T00:36:44;17.30;99.90
45096;DHT22;30858;51.108;8.068;2022-07-25T00:39:09;17.20;99.90
45096;DHT22;30858;51.108;8.068;2022-07-25T00:41:35;17.10;99.90
45096;DHT22;30858;51.108;8.068;2022-07-25T00:44:01;17.00;99.90
45096;DHT22;30858;51.108;8.068;2022-07-25T00:46:26;16.90;99.90
45096;DHT22;30858;51.108;8.068;2022-07-25T00:48:52;16.80;99.90
45096;DHT22;30858;51.108;8.068;2022-07-25T00:51:18;16.90;99.90
45096;DHT22;30858;51.108;8.068;2022-07-25T00:53:43;16.80;99.90
45096;DHT22;30858;51.108;8.068;2022-07-25T00:56:09;16.70;99.90
45096;DHT22;30858;51.108;8.068;2022-07-25T00:58:35;16.70;99.90
45096;DHT22;30858;51.108;8.068;2022-07-25T01:01:01;16.70;99.90
45096;DHT22;30858;51.108;8.068;2022-07-25T01:03:27;16.60;99.90
45096;DHT22;30858;51.108;8.068;2022-07-25T01:05:52;16.60;99.90
45096;DHT22;30858;51.108;8.068;2022-07-25T01:08:19;16.60;99.90
45096;DHT22;30858;51.108;8.068;2022-07-25T01:13:11;16.40;99.90
45096;DHT22;30858;51.108;8.068;2022-07-25T01:15:37;16.30;99.90
45096;DHT22;30858;51.108;8.068;2022-07-25T01:18:03;16.30;99.90
45096;DHT22;30858;51.108;8.068;2022-07-25T01:20:30;16.30;99.90
45096;DHT22;30858;51.108;8.068;2022-07-25T01:22:56;16.40;99.90
45096;DHT22;30858;51.108;8.068;2022-07-25T01:25:22;16.40;99.90
45096;DHT22;30858;51.108;8.068;2022-07-25T01:27:49;16.30;99.90
45096;DHT22;30858;51.108;8.068;2022-07-25T01:30:16;16.40;99.90
45096;DHT22;30858;51.108;8.068;2022-07-25T01:32:42;16.30;99.90
45096;DHT22;30858;51.108;8.068;2022-07-25T01:35:09;16.30;99.90
45096;DHT22;30858;51.108;8.068;2022-07-25T01:37:35;16.20;99.90
45096;DHT22;30858;51.108;8.068;2022-07-25T01:40:01;16.20;99.90
45096;DHT22;30858;51.108;8.068;2022-07-25T01:42:27;16.20;99.90
45096;DHT22;30858;51.108;8.068;2022-07-25T01:44:53;16.20;99.90
45096;DHT22;30858;51.108;8.068;2022-07-25T01:47:19;16.10;99.90
45096;DHT22;30858;51.108;8.068;2022-07-25T01:49:45;16.10;99.90
45096;DHT22;30858;51.108;8.068;2022-07-25T01:52:11;16.10;99.90
45096;DHT22;30858;51.108;8.068;2022-07-25T01:54:38;16.20;99.90
45096;DHT22;30858;51.108;8.068;2022-07-25T01:57:04;16.20;99.90
45096;DHT22;30858;51.108;8.068;2022-07-25T01:59:30;16.20;99.90
45096;DHT22;30858;51.108;8.068;2022-07-25T02:01:56;16.10;99.90
45096;DHT22;30858;51.108;8.068;2022-07-25T02:04:21;16.00;99.90
45096;DHT22;30858;51.108;8.068;2022-07-25T02:06:47;15.90;99.90
45096;DHT22;30858;51.108;8.068;2022-07-25T02:09:13;15.80;99.90
45096;DHT22;30858;51.108;8.068;2022-07-25T02:11:39;15.80;99.90
45096;DHT22;30858;51.108;8.068;2022-07-25T02:14:04;15.80;99.90
45096;DHT22;30858;51.108;8.068;2022-07-25T02:16:30;15.80;99.90
45096;DHT22;30858;51.108;8.068;2022-07-25T02:18:55;15.70;99.90
45096;DHT22;30858;51.108;8.068;2022-07-25T02:21:21;15.80;99.90
45096;DHT22;30858;51.108;8.068;2022-07-25T02:23:47;15.80;99.90
45096;DHT22;30858;51.108;8.068;2022-07-25T02:26:13;15.70;99.90
45096;DHT22;30858;51.108;8.068;2022-07-25T02:28:39;15.80;99.90
45096;DHT22;30858;51.108;8.068;2022-07-25T02:31:05;15.70;99.90
45096;DHT22;30858;51.108;8.068;2022-07-25T02:33:30;15.70;99.90
45096;DHT22;30858;51.108;8.068;2022-07-25T02:35:56;15.60;99.90
45096;DHT22;30858;51.108;8.068;2022-07-25T02:38:21;15.50;99.90
45096;DHT22;30858;51.108;8.068;2022-07-25T02:40:51;15.50;99.90
45096;DHT22;30858;51.108;8.068;2022-07-25T02:43:17;15.50;99.90
45096;DHT22;30858;51.108;8.068;2022-07-25T02:45:43;15.50;99.90
45096;DHT22;30858;51.108;8.068;2022-07-25T02:48:09;15.40;99.90
45096;DHT22;30858;51.108;8.068;2022-07-25T02:50:35;15.40;99.90
45096;DHT22;30858;51.108;8.068;2022-07-25T02:53:01;15.40;99.90
45096;DHT22;30858;51.108;8.068;2022-07-25T02:55:27;15.40;99.90
45096;DHT22;30858;51.108;8.068;2022-07-25T02:57:52;15.40;99.90
45096;DHT22;30858;51.108;8.068;2022-07-25T03:00:18;15.30;99.90
45096;DHT22;30858;51.108;8.068;2022-07-25T03:02:44;15.20;99.90
45096;DHT22;30858;51.108;8.068;2022-07-25T03:05:11;15.30;99.90
45096;DHT22;30858;51.108;8.068;2022-07-25T03:07:40;15.20;99.90
45096;DHT22;30858;51.108;8.068;2022-07-25T03:10:07;15.20;99.90
45096;DHT22;30858;51.108;8.068;2022-07-25T03:12:33;15.10;99.90
45096;DHT22;30858;51.108;8.068;2022-07-25T03:15:00;15.10;99.90
45096;DHT22;30858;51.108;8.068;2022-07-25T03:17:26;15.10;99.90
45096;DHT22;30858;51.108;8.068;2022-07-25T03:19:55;15.00;99.90
45096;DHT22;30858;51.108;8.068;2022-07-25T03:22:22;15.00;99.90
45096;DHT22;30858;51.108;8.068;2022-07-25T03:24:48;15.00;99.90
45096;DHT22;30858;51.108;8.068;2022-07-25T03:27:14;15.00;99.90
45096;DHT22;30858;51.108;8.068;2022-07-25T03:29:40;15.00;99.90
45096;DHT22;30858;51.108;8.068;2022-07-25T03:32:06;14.90;99.90
45096;DHT22;30858;51.108;8.068;2022-07-25T03:34:32;15.00;99.90
45096;DHT22;30858;51.108;8.068;2022-07-25T03:36:58;15.00;99.90
45096;DHT22;30858;51.108;8.068;2022-07-25T03:39:25;15.00;99.90
45096;DHT22;30858;51.108;8.068;2022-07-25T03:41:51;15.00;99.90
45096;DHT22;30858;51.108;8.068;2022-07-25T03:44:18;14.90;99.90
45096;DHT22;30858;51.108;8.068;2022-07-25T03:46:43;14.90;99.90
45096;DHT22;30858;51.108;8.068;2022-07-25T03:49:09;14.90;99.90
45096;DHT22;30858;51.108;8.068;2022-07-25T03:51:35;15.00;99.90
45096;DHT22;30858;51.108;8.068;2022-07-25T03:54:00;15.00;99.90
45096;DHT22;30858;51.108;8.068;2022-07-25T03:56:26;15.10;99.90
45096;DHT22;30858;51.108;8.068;2022-07-25T03:58:52;15.00;99.90
45096;DHT22;30858;51.108;8.068;2022-07-25T04:01:17;15.00;99.90
45096;DHT22;30858;51.108;8.068;2022-07-25T04:03:43;15.00;99.90
45096;DHT22;30858;51.108;8.068;2022-07-25T04:06:08;15.00;99.90
45096;DHT22;30858;51.108;8.068;2022-07-25T04:08:34;15.00;99.90
45096;DHT22;30858;51.108;8.068;2022-07-25T04:10:59;15.00;99.90
45096;DHT22;30858;51.108;8.068;2022-07-25T04:13:25;15.00;99.90
45096;DHT22;30858;51.108;8.068;2022-07-25T04:15:51;15.00;99.90
45096;DHT22;30858;51.108;8.068;2022-07-25T04:18:16;15.00;99.90
45096;DHT22;30858;51.108;8.068;2022-07-25T04:20:42;15.00;99.90
45096;DHT22;30858;51.108;8.068;2022-07-25T04:23:07;15.00;99.90
45096;DHT22;30858;51.108;8.068;2022-07-25T04:25:33;15.10;99.90
45096;DHT22;30858;51.108;8.068;2022-07-25T04:27:58;15.00;99.90
45096;DHT22;30858;51.108;8.068;2022-07-25T04:30:24;15.10;99.90
45096;DHT22;30858;51.108;8.068;2022-07-25T04:32:49;15.10;99.90
45096;DHT22;30858;51.108;8.068;2022-07-25T04:35:15;15.00;99.90
45096;DHT22;30858;51.108;8.068;2022-07-25T04:37:40;15.00;99.90
45096;DHT22;30858;51.108;8.068;2022-07-25T04:40:06;15.00;99.90
45096;DHT22;30858;51.108;8.068;2022-07-25T04:42:33;15.00;99.90
45096;DHT22;30858;51.108;8.068;2022-07-25T04:44:59;15.00;99.90
45096;DHT22;30858;51.108;8.068;2022-07-25T04:47:24;15.10;99.90
45096;DHT22;30858;51.108;8.068;2022-07-25T04:49:50;15.10;99.90
45096;DHT22;30858;51.108;8.068;2022-07-25T04:52:16;15.10;99.90
45096;DHT22;30858;51.108;8.068;2022-07-25T04:54:41;15.20;99.90
45096;DHT22;30858;51.108;8.068;2022-07-25T04:57:07;15.20;99.90
45096;DHT22;30858;51.108;8.068;2022-07-25T04:59:32;15.20;99.90
45096;DHT22;30858;51.108;8.068;2022-07-25T05:01:58;15.20;99.90
45096;DHT22;30858;51.108;8.068;2022-07-25T05:04:24;15.30;99.90
45096;DHT22;30858;51.108;8.068;2022-07-25T05:06:49;15.30;99.90
45096;DHT22;30858;51.108;8.068;2022-07-25T05:09:15;15.30;99.90
45096;DHT22;30858;51.108;8.068;2022-07-25T05:11:40;15.40;99.90
45096;DHT22;30858;51.108;8.068;2022-07-25T05:14:06;15.50;99.90
45096;DHT22;30858;51.108;8.068;2022-07-25T05:16:31;15.50;99.90
45096;DHT22;30858;51.108;8.068;2022-07-25T05:18:57;15.70;99.90
45096;DHT22;30858;51.108;8.068;2022-07-25T05:21:22;15.80;99.90
45096;DHT22;30858;51.108;8.068;2022-07-25T05:23:48;15.90;99.90
45096;DHT22;30858;51.108;8.068;2022-07-25T05:26:14;16.10;99.90
45096;DHT22;30858;51.108;8.068;2022-07-25T05:28:39;16.30;99.90
45096;DHT22;30858;51.108;8.068;2022-07-25T05:31:05;16.50;99.90
45096;DHT22;30858;51.108;8.068;2022-07-25T05:33:30;16.60;99.90
45096;DHT22;30858;51.108;8.068;2022-07-25T05:35:56;16.80;99.90
45096;DHT22;30858;51.108;8.068;2022-07-25T05:38:21;17.00;99.90
45096;DHT22;30858;51.108;8.068;2022-07-25T05:40:47;17.10;99.90
45096;DHT22;30858;51.108;8.068;2022-07-25T05:43:16;17.20;99.90
45096;DHT22;30858;51.108;8.068;2022-07-25T05:45:42;17.40;99.90
45096;DHT22;30858;51.108;8.068;2022-07-25T05:48:08;17.50;99.90
45096;DHT22;30858;51.108;8.068;2022-07-25T05:50:36;17.60;99.90
45096;DHT22;30858;51.108;8.068;2022-07-25T05:53:01;17.80;99.90
45096;DHT22;30858;51.108;8.068;2022-07-25T05:55:27;17.90;99.90
45096;DHT22;30858;51.108;8.068;2022-07-25T05:57:52;18.10;99.90
45096;DHT22;30858;51.108;8.068;2022-07-25T06:00:18;18.30;99.90
45096;DHT22;30858;51.108;8.068;2022-07-25T06:02:44;18.50;99.90
45096;DHT22;30858;51.108;8.068;2022-07-25T06:05:09;18.70;99.90
45096;DHT22;30858;51.108;8.068;2022-07-25T06:07:35;18.80;99.90
45096;DHT22;30858;51.108;8.068;2022-07-25T06:10:01;18.90;99.90
45096;DHT22;30858;51.108;8.068;2022-07-25T06:12:26;19.10;99.90
45096;DHT22;30858;51.108;8.068;2022-07-25T06:14:54;19.30;99.90
45096;DHT22;30858;51.108;8.068;2022-07-25T06:17:20;19.50;99.90
45096;DHT22;30858;51.108;8.068;2022-07-25T06:19:45;19.80;99.90
45096;DHT22;30858;51.108;8.068;2022-07-25T06:22:11;20.00;99.90
45096;DHT22;30858;51.108;8.068;2022-07-25T06:24:38;20.30;99.90
45096;DHT22;30858;51.108;8.068;2022-07-25T06:27:03;20.50;99.90
45096;DHT22;30858;51.108;8.068;2022-07-25T06:29:29;20.70;99.90
45096;DHT22;30858;51.108;8.068;2022-07-25T06:31:55;20.80;99.90
45096;DHT22;30858;51.108;8.068;2022-07-25T06:34:20;21.00;99.90
45096;DHT22;30858;51.108;8.068;2022-07-25T06:36:46;21.20;99.90
45096;DHT22;30858;51.108;8.068;2022-07-25T06:39:11;21.50;99.90
45096;DHT22;30858;51.108;8.068;2022-07-25T06:41:37;21.80;99.90
45096;DHT22;30858;51.108;8.068;2022-07-25T06:44:03;22.00;99.90
45096;DHT22;30858;51.108;8.068;2022-07-25T06:46:32;22.20;99.90
45096;DHT22;30858;51.108;8.068;2022-07-25T06:48:58;22.50;99.90
45096;DHT22;30858;51.108;8.068;2022-07-25T06:51:24;22.70;99.90
45096;DHT22;30858;51.108;8.068;2022-07-25T06:53:50;23.00;99.90
45096;DHT22;30858;51.108;8.068;2022-07-25T06:56:15;23.30;99.90
45096;DHT22;30858;51.108;8.068;2022-07-25T06:58:41;23.60;99.90
45096;DHT22;30858;51.108;8.068;2022-07-25T07:01:07;23.70;99.90
45096;DHT22;30858;51.108;8.068;2022-07-25T07:03:32;23.90;99.90
45096;DHT22;30858;51.108;8.068;2022-07-25T07:06:03;24.20;99.90
45096;DHT22;30858;51.108;8.068;2022-07-25T07:08:29;24.20;99.90
45096;DHT22;30858;51.108;8.068;2022-07-25T07:10:55;24.40;99.90
45096;DHT22;30858;51.108;8.068;2022-07-25T07:13:20;24.60;99.90
45096;DHT22;30858;51.108;8.068;2022-07-25T07:15:48;24.90;99.90
45096;DHT22;30858;51.108;8.068;2022-07-25T07:18:15;25.10;99.90
45096;DHT22;30858;51.108;8.068;2022-07-25T07:20:41;25.30;99.90
45096;DHT22;30858;51.108;8.068;2022-07-25T07:23:07;25.50;99.90
45096;DHT22;30858;51.108;8.068;2022-07-25T07:25:33;25.90;99.90
45096;DHT22;30858;51.108;8.068;2022-07-25T07:27:59;26.50;99.90
45096;DHT22;30858;51.108;8.068;2022-07-25T07:30:25;26.90;99.90
45096;DHT22;30858;51.108;8.068;2022-07-25T07:32:50;27.20;99.90
45096;DHT22;30858;51.108;8.068;2022-07-25T07:35:16;27.70;99.90
45096;DHT22;30858;51.108;8.068;2022-07-25T07:37:44;28.10;99.90
45096;DHT22;30858;51.108;8.068;2022-07-25T07:40:11;28.60;99.90
45096;DHT22;30858;51.108;8.068;2022-07-25T07:42:45;28.60;99.90
45096;DHT22;30858;51.108;8.068;2022-07-25T07:45:12;28.80;99.90
45096;DHT22;30858;51.108;8.068;2022-07-25T07:47:38;29.00;99.90
45096;DHT22;30858;51.108;8.068;2022-07-25T07:50:05;29.20;99.90
45096;DHT22;30858;51.108;8.068;2022-07-25T07:52:31;29.30;99.90
45096;DHT22;30858;51.108;8.068;2022-07-25T07:54:56;29.30;99.90
45096;DHT22;30858;51.108;8.068;2022-07-25T07:57:41;29.10;99.90
45096;DHT22;30858;51.108;8.068;2022-07-25T08:00:07;29.00;99.90
45096;DHT22;30858;51.108;8.068;2022-07-25T08:02:42;28.90;99.90
45096;DHT22;30858;51.108;8.068;2022-07-25T08:05:08;29.00;99.90
45096;DHT22;30858;51.108;8.068;2022-07-25T08:07:33;28.90;99.90
45096;DHT22;30858;51.108;8.068;2022-07-25T08:09:59;29.00;99.90
45096;DHT22;30858;51.108;8.068;2022-07-25T08:12:25;28.90;99.90
45096;DHT22;30858;51.108;8.068;2022-07-25T08:14:50;28.90;99.90
45096;DHT22;30858;51.108;8.068;2022-07-25T08:17:16;28.90;99.90
45096;DHT22;30858;51.108;8.068;2022-07-25T08:19:41;28.90;99.90
45096;DHT22;30858;51.108;8.068;2022-07-25T08:22:07;28.80;99.90
45096;DHT22;30858;51.108;8.068;2022-07-25T08:24:33;28.90;99.90
45096;DHT22;30858;51.108;8.068;2022-07-25T08:26:58;29.00;99.90
45096;DHT22;30858;51.108;8.068;2022-07-25T08:29:24;28.80;99.90
45096;DHT22;30858;51.108;8.068;2022-07-25T08:31:50;28.70;99.90
45096;DHT22;30858;51.108;8.068;2022-07-25T08:34:15;28.70;99.90
45096;DHT22;30858;51.108;8.068;2022-07-25T08:36:41;28.80;99.90
45096;DHT22;30858;51.108;8.068;2022-07-25T08:39:06;28.70;99.90
45096;DHT22;30858;51.108;8.068;2022-07-25T08:41:32;28.70;99.90
45096;DHT22;30858;51.108;8.068;2022-07-25T08:43:59;28.80;99.90
45096;DHT22;30858;51.108;8.068;2022-07-25T08:46:25;28.90;99.90
45096;DHT22;30858;51.108;8.068;2022-07-25T08:48:53;28.90;99.90
45096;DHT22;30858;51.108;8.068;2022-07-25T08:51:18;29.00;99.90
45096;DHT22;30858;51.108;8.068;2022-07-25T08:53:44;29.20;99.90
45096;DHT22;30858;51.108;8.068;2022-07-25T08:56:10;29.20;99.90
45096;DHT22;30858;51.108;8.068;2022-07-25T08:58:36;29.50;99.90
45096;DHT22;30858;51.108;8.068;2022-07-25T09:01:01;29.60;99.90
45096;DHT22;30858;51.108;8.068;2022-07-25T09:03:27;29.60;99.90
45096;DHT22;30858;51.108;8.068;2022-07-25T09:05:52;29.80;99.90
45096;DHT22;30858;51.108;8.068;2022-07-25T09:08:18;29.70;99.90
45096;DHT22;30858;51.108;8.068;2022-07-25T09:10:49;29.70;99.90
45096;DHT22;30858;51.108;8.068;2022-07-25T09:13:15;29.90;99.90
45096;DHT22;30858;51.108;8.068;2022-07-25T09:15:47;30.10;99.90
45096;DHT22;30858;51.108;8.068;2022-07-25T09:18:15;30.30;99.90
45096;DHT22;30858;51.108;8.068;2022-07-25T09:20:49;30.50;99.90
45096;DHT22;30858;51.108;8.068;2022-07-25T09:26:10;30.90;99.90
45096;DHT22;30858;51.108;8.068;2022-07-25T09:28:47;31.10;99.90
45096;DHT22;30858;51.108;8.068;2022-07-25T09:31:14;31.40;99.90
45096;DHT22;30858;51.108;8.068;2022-07-25T09:36:13;31.20;99.90
45096;DHT22;30858;51.108;8.068;2022-07-25T09:38:39;31.70;99.30
45096;DHT22;30858;51.108;8.068;2022-07-25T09:41:05;31.90;98.20
45096;DHT22;30858;51.108;8.068;2022-07-25T09:43:40;32.20;98.10
45096;DHT22;30858;51.108;8.068;2022-07-25T09:46:06;32.30;97.20
45096;DHT22;30858;51.108;8.068;2022-07-25T09:48:33;32.50;96.50
45096;DHT22;30858;51.108;8.068;2022-07-25T09:50:59;32.30;95.60
45096;DHT22;30858;51.108;8.068;2022-07-25T09:53:25;31.90;95.40
45096;DHT22;30858;51.108;8.068;2022-07-25T09:55:51;31.70;95.00
45096;DHT22;30858;51.108;8.068;2022-07-25T09:58:19;31.60;94.70
45096;DHT22;30858;51.108;8.068;2022-07-25T10:00:45;31.50;94.70
45096;DHT22;30858;51.108;8.068;2022-07-25T10:08:23;32.30;94.40
45096;DHT22;30858;51.108;8.068;2022-07-25T10:10:49;32.00;93.80
45096;DHT22;30858;51.108;8.068;2022-07-25T10:13:16;31.90;93.90
45096;DHT22;30858;51.108;8.068;2022-07-25T10:15:52;32.10;93.70
45096;DHT22;30858;51.108;8.068;2022-07-25T10:18:20;32.50;94.00
45096;DHT22;30858;51.108;8.068;2022-07-25T10:20:48;32.90;92.90
45096;DHT22;30858;51.108;8.068;2022-07-25T10:25:43;32.80;92.70
45096;DHT22;30858;51.108;8.068;2022-07-25T10:28:09;32.90;92.60
45096;DHT22;30858;51.108;8.068;2022-07-25T10:30:36;32.80;92.40
45096;DHT22;30858;51.108;8.068;2022-07-25T10:33:13;33.20;91.60
45096;DHT22;30858;51.108;8.068;2022-07-25T10:35:39;33.10;91.90
45096;DHT22;30858;51.108;8.068;2022-07-25T10:38:05;33.50;92.00
45096;DHT22;30858;51.108;8.068;2022-07-25T10:40:35;33.80;91.20
45096;DHT22;30858;51.108;8.068;2022-07-25T10:43:03;34.20;91.50
45096;DHT22;30858;51.108;8.068;2022-07-25T10:45:42;34.70;90.30
45096;DHT22;30858;51.108;8.068;2022-07-25T10:48:09;34.50;89.00
45096;DHT22;30858;51.108;8.068;2022-07-25T10:50:55;34.20;89.20
45096;DHT22;30858;51.108;8.068;2022-07-25T10:53:50;33.60;90.90
45096;DHT22;30858;51.108;8.068;2022-07-25T10:56:18;33.50;90.70
45096;DHT22;30858;51.108;8.068;2022-07-25T11:01:13;34.00;89.50
45096;DHT22;30858;51.108;8.068;2022-07-25T11:03:40;33.60;90.10
45096;DHT22;30858;51.108;8.068;2022-07-25T11:06:09;33.70;90.00
45096;DHT22;30858;51.108;8.068;2022-07-25T11:08:35;33.70;89.60
45096;DHT22;30858;51.108;8.068;2022-07-25T11:11:01;34.10;90.20
45096;DHT22;30858;51.108;8.068;2022-07-25T11:13:27;34.40;89.90
45096;DHT22;30858;51.108;8.068;2022-07-25T11:15:57;34.20;90.00
45096;DHT22;30858;51.108;8.068;2022-07-25T11:18:36;34.30;87.70
45096;DHT22;30858;51.108;8.068;2022-07-25T11:21:03;33.50;88.00
45096;DHT22;30858;51.108;8.068;2022-07-25T11:23:29;32.60;89.00
45096;DHT22;30858;51.108;8.068;2022-07-25T11:26:21;31.90;89.70
45096;DHT22;30858;51.108;8.068;2022-07-25T11:28:48;31.40;90.90
45096;DHT22;30858;51.108;8.068;2022-07-25T11:31:15;31.20;90.80
45096;DHT22;30858;51.108;8.068;2022-07-25T11:33:44;30.60;91.10
45096;DHT22;30858;51.108;8.068;2022-07-25T11:36:11;30.40;91.70
45096;DHT22;30858;51.108;8.068;2022-07-25T11:38:38;30.30;91.80
45096;DHT22;30858;51.108;8.068;2022-07-25T11:41:05;29.90;92.70
45096;DHT22;30858;51.108;8.068;2022-07-25T11:43:31;29.60;93.60
45096;DHT22;30858;51.108;8.068;2022-07-25T11:46:02;29.40;96.90
45096;DHT22;30858;51.108;8.068;2022-07-25T11:51:08;28.60;99.90
45096;DHT22;30858;51.108;8.068;2022-07-25T11:53:39;28.50;99.90
45096;DHT22;30858;51.108;8.068;2022-07-25T11:56:12;28.30;99.90
45096;DHT22;30858;51.108;8.068;2022-07-25T11:58:38;28.20;99.90
45096;DHT22;30858;51.108;8.068;2022-07-25T12:01:13;28.30;99.90
45096;DHT22;30858;51.108;8.068;2022-07-25T12:03:40;28.50;99.90
45096;DHT22;30858;51.108;8.068;2022-07-25T12:06:10;28.60;99.90
45096;DHT22;30858;51.108;8.068;2022-07-25T12:08:39;28.70;99.90
45096;DHT22;30858;51.108;8.068;2022-07-25T12:11:19;28.80;99.90
45096;DHT22;30858;51.108;8.068;2022-07-25T12:13:45;28.80;99.90
45096;DHT22;30858;51.108;8.068;2022-07-25T12:16:10;28.50;99.90
45096;DHT22;30858;51.108;8.068;2022-07-25T12:18:37;28.40;99.90
45096;DHT22;30858;51.108;8.068;2022-07-25T12:21:03;28.60;99.90
45096;DHT22;30858;51.108;8.068;2022-07-25T12:23:28;28.60;99.90
45096;DHT22;30858;51.108;8.068;2022-07-25T12:25:54;28.80;99.90
45096;DHT22;30858;51.108;8.068;2022-07-25T12:28:20;28.80;99.90
45096;DHT22;30858;51.108;8.068;2022-07-25T12:30:46;29.50;99.90
45096;DHT22;30858;51.108;8.068;2022-07-25T12:33:12;30.00;99.90
45096;DHT22;30858;51.108;8.068;2022-07-25T12:35:41;30.70;99.90
45096;DHT22;30858;51.108;8.068;2022-07-25T12:38:08;31.30;99.90
45096;DHT22;30858;51.108;8.068;2022-07-25T12:40:35;31.90;98.90
45096;DHT22;30858;51.108;8.068;2022-07-25T12:43:01;32.70;97.40
45096;DHT22;30858;51.108;8.068;2022-07-25T12:45:26;32.50;96.50
45096;DHT22;30858;51.108;8.068;2022-07-25T12:47:52;33.30;95.50
45096;DHT22;30858;51.108;8.068;2022-07-25T12:50:17;33.10;94.80
45096;DHT22;30858;51.108;8.068;2022-07-25T12:52:44;33.40;93.90
45096;DHT22;30858;51.108;8.068;2022-07-25T12:55:12;33.50;93.70
45096;DHT22;30858;51.108;8.068;2022-07-25T12:57:39;33.20;93.00
45096;DHT22;30858;51.108;8.068;2022-07-25T13:00:07;33.90;92.90
45096;DHT22;30858;51.108;8.068;2022-07-25T13:02:33;33.20;92.70
45096;DHT22;30858;51.108;8.068;2022-07-25T13:04:59;32.60;93.60
45096;DHT22;30858;51.108;8.068;2022-07-25T13:07:25;32.40;93.70
45096;DHT22;30858;51.108;8.068;2022-07-25T13:09:50;32.60;93.80
45096;DHT22;30858;51.108;8.068;2022-07-25T13:12:16;32.60;93.70
45096;DHT22;30858;51.108;8.068;2022-07-25T13:14:41;33.00;93.90
45096;DHT22;30858;51.108;8.068;2022-07-25T13:17:07;32.30;93.40
45096;DHT22;30858;51.108;8.068;2022-07-25T13:19:32;33.40;92.80
45096;DHT22;30858;51.108;8.068;2022-07-25T13:21:58;33.90;92.50
45096;DHT22;30858;51.108;8.068;2022-07-25T13:24:24;34.30;91.50
45096;DHT22;30858;51.108;8.068;2022-07-25T13:26:49;33.70;92.00
45096;DHT22;30858;51.108;8.068;2022-07-25T13:29:15;33.40;92.30
45096;DHT22;30858;51.108;8.068;2022-07-25T13:31:40;33.30;91.90
45096;DHT22;30858;51.108;8.068;2022-07-25T13:34:07;33.40;91.60
45096;DHT22;30858;51.108;8.068;2022-07-25T13:36:33;32.60;92.40
45096;DHT22;30858;51.108;8.068;2022-07-25T13:38:59;32.70;92.60
45096;DHT22;30858;51.108;8.068;2022-07-25T13:41:24;32.60;92.80
45096;DHT22;30858;51.108;8.068;2022-07-25T13:43:50;33.00;92.50
45096;DHT22;30858;51.108;8.068;2022-07-25T13:46:16;32.10;93.00
45096;DHT22;30858;51.108;8.068;2022-07-25T13:48:41;31.20;94.00
45096;DHT22;30858;51.108;8.068;2022-07-25T13:51:07;31.70;94.00
45096;DHT22;30858;51.108;8.068;2022-07-25T13:53:32;32.30;93.60
45096;DHT22;30858;51.108;8.068;2022-07-25T13:55:58;33.20;94.00
45096;DHT22;30858;51.108;8.068;2022-07-25T13:58:25;33.80;92.70
45096;DHT22;30858;51.108;8.068;2022-07-25T14:00:50;33.80;93.40
45096;DHT22;30858;51.108;8.068;2022-07-25T14:03:16;34.60;91.20
45096;DHT22;30858;51.108;8.068;2022-07-25T14:05:42;33.70;91.20
45096;DHT22;30858;51.108;8.068;2022-07-25T14:08:07;34.10;91.10
45096;DHT22;30858;51.108;8.068;2022-07-25T14:10:33;34.60;90.90
45096;DHT22;30858;51.108;8.068;2022-07-25T14:12:59;35.30;90.60
45096;DHT22;30858;51.108;8.068;2022-07-25T14:15:25;34.90;90.10
45096;DHT22;30858;51.108;8.068;2022-07-25T14:17:51;34.00;90.70
45096;DHT22;30858;51.108;8.068;2022-07-25T14:20:16;33.80;91.40
45096;DHT22;30858;51.108;8.068;2022-07-25T14:22:42;33.60;91.70
45096;DHT22;30858;51.108;8.068;2022-07-25T14:25:08;33.10;92.20
45096;DHT22;30858;51.108;8.068;2022-07-25T14:27:35;32.30;93.50
45096;DHT22;30858;51.108;8.068;2022-07-25T14:30:02;31.90;93.80
45096;DHT22;30858;51.108;8.068;2022-07-25T14:32:27;31.60;94.50
45096;DHT22;30858;51.108;8.068;2022-07-25T14:34:53;32.10;95.10
45096;DHT22;30858;51.108;8.068;2022-07-25T14:37:19;32.50;95.00
45096;DHT22;30858;51.108;8.068;2022-07-25T14:39:46;33.00;95.10
45096;DHT22;30858;51.108;8.068;2022-07-25T14:42:12;32.70;94.80
45096;DHT22;30858;51.108;8.068;2022-07-25T14:44:38;32.60;94.30
45096;DHT22;30858;51.108;8.068;2022-07-25T14:47:05;32.30;94.50
45096;DHT22;30858;51.108;8.068;2022-07-25T14:49:30;32.00;94.60
45096;DHT22;30858;51.108;8.068;2022-07-25T14:51:56;31.80;94.80
45096;DHT22;30858;51.108;8.068;2022-07-25T14:54:21;31.70;94.50
45096;DHT22;30858;51.108;8.068;2022-07-25T14:56:47;31.30;94.00
45096;DHT22;30858;51.108;8.068;2022-07-25T14:59:13;30.40;94.70
45096;DHT22;30858;51.108;8.068;2022-07-25T15:01:38;30.50;95.30
45096;DHT22;30858;51.108;8.068;2022-07-25T15:04:04;30.30;95.70
45096;DHT22;30858;51.108;8.068;2022-07-25T15:06:30;30.50;95.40
45096;DHT22;30858;51.108;8.068;2022-07-25T15:08:56;30.60;95.70
45096;DHT22;30858;51.108;8.068;2022-07-25T15:11:22;31.30;93.90
45096;DHT22;30858;51.108;8.068;2022-07-25T15:13:48;30.70;95.00
45096;DHT22;30858;51.108;8.068;2022-07-25T15:16:14;30.90;94.90
45096;DHT22;30858;51.108;8.068;2022-07-25T15:18:40;30.90;94.90
45096;DHT22;30858;51.108;8.068;2022-07-25T15:21:06;30.10;95.30
45096;DHT22;30858;51.108;8.068;2022-07-25T15:23:31;29.80;95.40
45096;DHT22;30858;51.108;8.068;2022-07-25T15:25:57;29.60;96.60
45096;DHT22;30858;51.108;8.068;2022-07-25T15:28:23;30.40;96.40
45096;DHT22;30858;51.108;8.068;2022-07-25T15:30:49;30.30;96.70
45096;DHT22;30858;51.108;8.068;2022-07-25T15:33:16;30.00;96.60
45096;DHT22;30858;51.108;8.068;2022-07-25T15:35:47;30.20;96.50
45096;DHT22;30858;51.108;8.068;2022-07-25T15:38:13;29.60;96.90
45096;DHT22;30858;51.108;8.068;2022-07-25T15:40:40;29.90;96.50
45096;DHT22;30858;51.108;8.068;2022-07-25T15:43:06;29.90;96.20
45096;DHT22;30858;51.108;8.068;2022-07-25T15:45:31;29.10;97.40